Borough Green, United Kingdom
Current Conditions -  °F | °C
As of 9:20 AM on Friday 28 Nov 2014 (Local Time) from EGKB Reporting Station
Haze Haze  
Wind Chill: 50°   Ceiling: 200
Heat Index: 50°   Visibility: 1mi
Dew Point: 48°   Wind: 9mph
Humidity: 94%   Direction: 80°E
Pressure: 29.59"   Gusts: NA
Location:  51.29°N, 0.3°E
Report Text: EGKB 280920Z 08008KT 1600 HZ BKN002 10/09 Q1002
Loading
Personal Weather Stations






























Interactive Weather Map New forecast layout! Learn more

10-Day Weather Forecast

Advertisements
Track Severe Weather on mobile